sensor_id;sensor_type;location;lat;lon;timestamp;pressure;altitude;pressure_sealevel;temperature;humidity
45793;BME280;31495;42.740;22.908;2023-05-23T00:00:32;92973.38;;;12.36;72.04
45793;BME280;31495;42.740;22.908;2023-05-23T00:01:32;92971.38;;;12.38;71.88
45793;BME280;31495;42.740;22.908;2023-05-23T00:02:31;92973.16;;;12.38;71.76
45793;BME280;31495;42.740;22.908;2023-05-23T00:03:30;92980.38;;;12.36;71.63
45793;BME280;31495;42.740;22.908;2023-05-23T00:04:31;92974.63;;;12.34;71.58
45793;BME280;31495;42.740;22.908;2023-05-23T00:05:31;92972.94;;;12.39;71.59
45793;BME280;31495;42.740;22.908;2023-05-23T00:06:30;92980.72;;;12.39;71.54
45793;BME280;31495;42.740;22.908;2023-05-23T00:07:29;92977.78;;;12.36;71.52
45793;BME280;31495;42.740;22.908;2023-05-23T00:08:30;92973.59;;;12.35;71.49
45793;BME280;31495;42.740;22.908;2023-05-23T00:09:29;92983.97;;;12.35;71.40
45793;BME280;31495;42.740;22.908;2023-05-23T00:10:29;92978.69;;;12.29;71.54
45793;BME280;31495;42.740;22.908;2023-05-23T00:11:28;92984.56;;;12.25;71.79
45793;BME280;31495;42.740;22.908;2023-05-23T00:12:29;92980.38;;;12.24;71.54
45793;BME280;31495;42.740;22.908;2023-05-23T00:13:28;92978.78;;;12.23;71.29
45793;BME280;31495;42.740;22.908;2023-05-23T00:14:28;92975.19;;;12.24;70.88
45793;BME280;31495;42.740;22.908;2023-05-23T00:15:31;92936.59;;;12.04;70.55
45793;BME280;31495;42.740;22.908;2023-05-23T00:16:31;92979.59;;;12.23;70.52
45793;BME280;31495;42.740;22.908;2023-05-23T00:17:30;92980.59;;;12.22;70.68
45793;BME280;31495;42.740;22.908;2023-05-23T00:18:30;92982.38;;;12.10;71.15
45793;BME280;31495;42.740;22.908;2023-05-23T00:19:29;92980.69;;;12.04;71.46
45793;BME280;31495;42.740;22.908;2023-05-23T00:20:28;92979.66;;;12.05;71.64
45793;BME280;31495;42.740;22.908;2023-05-23T00:21:28;92974.34;;;12.00;71.71
45793;BME280;31495;42.740;22.908;2023-05-23T00:22:28;92978.19;;;11.97;71.79
45793;BME280;31495;42.740;22.908;2023-05-23T00:23:27;92979.75;;;11.98;71.86
45793;BME280;31495;42.740;22.908;2023-05-23T00:24:27;92971.97;;;11.98;71.88
45793;BME280;31495;42.740;22.908;2023-05-23T00:25:27;92973.56;;;11.99;71.57
45793;BME280;31495;42.740;22.908;2023-05-23T00:26:31;92970.03;;;11.93;71.69
45793;BME280;31495;42.740;22.908;2023-05-23T00:27:31;92968.03;;;11.95;71.57
45793;BME280;31495;42.740;22.908;2023-05-23T00:28:31;92969.31;;;11.86;71.62
45793;BME280;31495;42.740;22.908;2023-05-23T00:29:30;92969.31;;;11.86;71.86
45793;BME280;31495;42.740;22.908;2023-05-23T00:30:30;92971.69;;;11.88;71.67
45793;BME280;31495;42.740;22.908;2023-05-23T00:31:30;92966.28;;;11.89;71.81
45793;BME280;31495;42.740;22.908;2023-05-23T00:32:29;92974.84;;;11.90;71.75
45793;BME280;31495;42.740;22.908;2023-05-23T00:33:29;92975.88;;;11.89;71.62
45793;BME280;31495;42.740;22.908;2023-05-23T00:34:31;92971.69;;;11.88;71.71
45793;BME280;31495;42.740;22.908;2023-05-23T00:35:30;92975.28;;;11.87;71.56
45793;BME280;31495;42.740;22.908;2023-05-23T00:36:30;92972.91;;;11.85;71.54
45793;BME280;31495;42.740;22.908;2023-05-23T00:37:35;92975.28;;;11.87;71.39
45793;BME280;31495;42.740;22.908;2023-05-23T00:38:34;92966.50;;;11.88;71.24
45793;BME280;31495;42.740;22.908;2023-05-23T00:39:33;92976.09;;;11.87;71.22
45793;BME280;31495;42.740;22.908;2023-05-23T00:40:33;92966.94;;;11.85;71.07
45793;BME280;31495;42.740;22.908;2023-05-23T00:41:33;92968.63;;;11.79;71.15
45793;BME280;31495;42.740;22.908;2023-05-23T00:42:32;92965.81;;;11.81;71.15
45793;BME280;31495;42.740;22.908;2023-05-23T00:43:32;92961.66;;;11.80;71.28
45793;BME280;31495;42.740;22.908;2023-05-23T00:44:31;92967.94;;;11.84;71.27
45793;BME280;31495;42.740;22.908;2023-05-23T00:45:30;92970.53;;;11.84;71.12
45793;BME280;31495;42.740;22.908;2023-05-23T00:46:30;92974.59;;;11.80;71.29
45793;BME280;31495;42.740;22.908;2023-05-23T00:47:30;92972.78;;;11.80;71.04
45793;BME280;31495;42.740;22.908;2023-05-23T00:48:29;92971.22;;;11.79;71.06
45793;BME280;31495;42.740;22.908;2023-05-23T00:49:29;92969.06;;;11.76;71.26
45793;BME280;31495;42.740;22.908;2023-05-23T00:50:29;92968.34;;;11.69;71.49
45793;BME280;31495;42.740;22.908;2023-05-23T00:51:28;92966.78;;;11.68;71.28
45793;BME280;31495;42.740;22.908;2023-05-23T00:52:27;92962.13;;;11.58;71.55
45793;BME280;31495;42.740;22.908;2023-05-23T00:53:27;92959.69;;;11.63;71.40
45793;BME280;31495;42.740;22.908;2023-05-23T00:54:27;92962.75;;;11.72;71.26
45793;BME280;31495;42.740;22.908;2023-05-23T00:55:27;92962.97;;;11.70;71.17
45793;BME280;31495;42.740;22.908;2023-05-23T00:56:27;92965.63;;;11.64;71.21
45793;BME280;31495;42.740;22.908;2023-05-23T00:57:27;92964.06;;;11.63;71.32
45793;BME280;31495;42.740;22.908;2023-05-23T00:58:26;92968.75;;;11.54;71.44
45793;BME280;31495;42.740;22.908;2023-05-23T00:59:26;92960.84;;;11.49;71.87
45793;BME280;31495;42.740;22.908;2023-05-23T01:00:25;92963.44;;;11.49;71.88
45793;BME280;31495;42.740;22.908;2023-05-23T01:01:24;92962.66;;;11.48;71.55
45793;BME280;31495;42.740;22.908;2023-05-23T01:02:25;92958.34;;;11.42;71.67
45793;BME280;31495;42.740;22.908;2023-05-23T01:03:25;92964.41;;;11.36;71.94
45793;BME280;31495;42.740;22.908;2023-05-23T01:04:26;92958.88;;;11.32;72.32
45793;BME280;31495;42.740;22.908;2023-05-23T01:05:26;92961.09;;;11.29;72.43
45793;BME280;31495;42.740;22.908;2023-05-23T01:06:25;92962.09;;;11.28;72.49
45793;BME280;31495;42.740;22.908;2023-05-23T01:07:28;92959.09;;;11.31;72.25
45793;BME280;31495;42.740;22.908;2023-05-23T01:08:28;92964.84;;;11.33;72.22
45793;BME280;31495;42.740;22.908;2023-05-23T01:09:28;92965.50;;;11.28;71.81
45793;BME280;31495;42.740;22.908;2023-05-23T01:10:28;92963.34;;;11.25;71.78
45793;BME280;31495;42.740;22.908;2023-05-23T01:11:32;92971.69;;;11.27;71.74
45793;BME280;31495;42.740;22.908;2023-05-23T01:12:37;92972.81;;;11.31;71.59
45793;BME280;31495;42.740;22.908;2023-05-23T01:13:41;92974.28;;;11.27;71.83
45793;BME280;31495;42.740;22.908;2023-05-23T01:14:44;92976.88;;;11.27;71.90
45793;BME280;31495;42.740;22.908;2023-05-23T01:16:49;92970.81;;;11.33;71.54
45793;BME280;31495;42.740;22.908;2023-05-23T01:17:54;92972.25;;;11.29;71.69
45793;BME280;31495;42.740;22.908;2023-05-23T01:18:58;92979.53;;;11.20;72.17
45793;BME280;31495;42.740;22.908;2023-05-23T01:20:10;92979.31;;;11.22;71.88
45793;BME280;31495;42.740;22.908;2023-05-23T01:21:14;92978.97;;;11.18;71.99
45793;BME280;31495;42.740;22.908;2023-05-23T01:22:18;92976.66;;;11.10;72.30
45793;BME280;31495;42.740;22.908;2023-05-23T01:23:24;92976.75;;;11.03;72.69
45793;BME280;31495;42.740;22.908;2023-05-23T01:25:03;92972.78;;;11.01;72.98
45793;BME280;31495;42.740;22.908;2023-05-23T01:28:01;92969.19;;;11.02;72.60
45793;BME280;31495;42.740;22.908;2023-05-23T01:29:10;92968.16;;;11.03;72.63
45793;BME280;31495;42.740;22.908;2023-05-23T01:30:11;92958.38;;;11.05;72.66
45793;BME280;31495;42.740;22.908;2023-05-23T01:31:11;92964.78;;;11.02;72.67
45793;BME280;31495;42.740;22.908;2023-05-23T01:32:11;92962.78;;;11.04;72.48
45793;BME280;31495;42.740;22.908;2023-05-23T01:33:13;92967.66;;;11.13;72.44
45793;BME280;31495;42.740;22.908;2023-05-23T01:34:14;92968.09;;;11.10;72.25
45793;BME280;31495;42.740;22.908;2023-05-23T01:35:18;92966.59;;;11.02;72.71
45793;BME280;31495;42.740;22.908;2023-05-23T01:36:20;92960.97;;;11.05;72.55
45793;BME280;31495;42.740;22.908;2023-05-23T01:37:20;92955.56;;;11.07;72.18
45793;BME280;31495;42.740;22.908;2023-05-23T01:38:19;92969.47;;;11.12;72.12
45793;BME280;31495;42.740;22.908;2023-05-23T01:39:18;92964.84;;;11.14;72.16
45793;BME280;31495;42.740;22.908;2023-05-23T01:40:18;92963.34;;;11.07;72.41
45793;BME280;31495;42.740;22.908;2023-05-23T01:41:17;92960.75;;;11.07;72.54
45793;BME280;31495;42.740;22.908;2023-05-23T01:42:16;92954.94;;;11.11;72.20
45793;BME280;31495;42.740;22.908;2023-05-23T01:43:16;92954.22;;;11.04;72.25
45793;BME280;31495;42.740;22.908;2023-05-23T01:44:16;92957.47;;;10.99;72.57
45793;BME280;31495;42.740;22.908;2023-05-23T01:45:16;92952.94;;;10.95;72.75
45793;BME280;31495;42.740;22.908;2023-05-23T01:46:16;92956.06;;;10.97;72.68
45793;BME280;31495;42.740;22.908;2023-05-23T01:47:16;92952.78;;;10.90;72.79
45793;BME280;31495;42.740;22.908;2023-05-23T01:48:15;92952.16;;;10.94;72.62
45793;BME280;31495;42.740;22.908;2023-05-23T01:49:15;92949.47;;;11.01;72.64
45793;BME280;31495;42.740;22.908;2023-05-23T01:50:16;92946.88;;;11.01;72.64
45793;BME280;31495;42.740;22.908;2023-05-23T01:51:16;92947.09;;;10.99;72.37
45793;BME280;31495;42.740;22.908;2023-05-23T01:52:15;92944.50;;;10.99;72.05
45793;BME280;31495;42.740;22.908;2023-05-23T01:53:15;92947.97;;;10.93;72.33
45793;BME280;31495;42.740;22.908;2023-05-23T01:54:15;92948.03;;;10.87;72.73
45793;BME280;31495;42.740;22.908;2023-05-23T01:55:16;92948.88;;;10.80;72.81
45793;BME280;31495;42.740;22.908;2023-05-23T01:56:16;92947.13;;;10.81;72.59
45793;BME280;31495;42.740;22.908;2023-05-23T01:57:16;92943.50;;;10.82;72.64
45793;BME280;31495;42.740;22.908;2023-05-23T01:58:16;92949.78;;;10.74;72.66
45793;BME280;31495;42.740;22.908;2023-05-23T01:59:15;92952.78;;;10.71;72.72
45793;BME280;31495;42.740;22.908;2023-05-23T02:00:15;92956.38;;;10.70;72.64
45793;BME280;31495;42.740;22.908;2023-05-23T02:01:14;92958.53;;;10.73;72.61
45793;BME280;31495;42.740;22.908;2023-05-23T02:02:14;92956.38;;;10.70;72.37
45793;BME280;31495;42.740;22.908;2023-05-23T02:03:13;92956.56;;;10.69;72.29
45793;BME280;31495;42.740;22.908;2023-05-23T02:04:12;92952.78;;;10.71;72.48
45793;BME280;31495;42.740;22.908;2023-05-23T02:05:12;92960.53;;;10.71;72.43
45793;BME280;31495;42.740;22.908;2023-05-23T02:06:11;92954.41;;;10.65;72.81
45793;BME280;31495;42.740;22.908;2023-05-23T02:07:11;92950.75;;;10.73;72.84
45793;BME280;31495;42.740;22.908;2023-05-23T02:08:10;92954.19;;;10.67;72.94
45793;BME280;31495;42.740;22.908;2023-05-23T02:09:09;92953.28;;;10.61;72.86
45793;BME280;31495;42.740;22.908;2023-05-23T02:10:09;92954.06;;;10.62;72.94
45793;BME280;31495;42.740;22.908;2023-05-23T02:11:08;92953.63;;;10.65;72.66
45793;BME280;31495;42.740;22.908;2023-05-23T02:12:08;92958.81;;;10.65;72.71
45793;BME280;31495;42.740;22.908;2023-05-23T02:13:08;92955.88;;;10.61;72.94
45793;BME280;31495;42.740;22.908;2023-05-23T02:14:08;92954.47;;;10.59;72.83
45793;BME280;31495;42.740;22.908;2023-05-23T02:15:07;92954.75;;;10.51;73.03
45793;BME280;31495;42.740;22.908;2023-05-23T02:16:07;92953.34;;;10.55;72.73
45793;BME280;31495;42.740;22.908;2023-05-23T02:17:09;92956.91;;;10.54;72.93
45793;BME280;31495;42.740;22.908;2023-05-23T02:18:09;92955.94;;;10.55;72.80
45793;BME280;31495;42.740;22.908;2023-05-23T02:19:08;92960.78;;;10.44;72.98
45793;BME280;31495;42.740;22.908;2023-05-23T02:20:07;92956.84;;;10.42;73.09
45793;BME280;31495;42.740;22.908;2023-05-23T02:21:08;92955.84;;;10.43;73.20
45793;BME280;31495;42.740;22.908;2023-05-23T02:22:07;92959.78;;;10.45;73.21
45793;BME280;31495;42.740;22.908;2023-05-23T02:23:06;92957.97;;;10.46;73.13
45793;BME280;31495;42.740;22.908;2023-05-23T02:24:05;92952.38;;;10.49;72.77
45793;BME280;31495;42.740;22.908;2023-05-23T02:25:05;92954.03;;;10.43;73.11
45793;BME280;31495;42.740;22.908;2023-05-23T02:26:05;92950.13;;;10.34;73.33
45793;BME280;31495;42.740;22.908;2023-05-23T02:27:04;92955.75;;;10.24;73.54
45793;BME280;31495;42.740;22.908;2023-05-23T02:28:03;92950.94;;;10.35;73.32
45793;BME280;31495;42.740;22.908;2023-05-23T02:29:03;92950.88;;;10.41;73.03
45793;BME280;31495;42.740;22.908;2023-05-23T02:30:02;92949.84;;;10.42;73.23
45793;BME280;31495;42.740;22.908;2023-05-23T02:31:02;92952.81;;;10.46;73.03
45793;BME280;31495;42.740;22.908;2023-05-23T02:32:01;92949.66;;;10.44;73.02
45793;BME280;31495;42.740;22.908;2023-05-23T02:33:03;92952.44;;;10.42;72.94
45793;BME280;31495;42.740;22.908;2023-05-23T02:34:02;92950.50;;;10.38;72.98
45793;BME280;31495;42.740;22.908;2023-05-23T02:35:02;92953.28;;;10.36;73.07
45793;BME280;31495;42.740;22.908;2023-05-23T02:36:01;92952.28;;;10.37;73.18
45793;BME280;31495;42.740;22.908;2023-05-23T02:37:01;92958.91;;;10.33;73.17
45793;BME280;31495;42.740;22.908;2023-05-23T02:38:00;92960.25;;;10.36;73.15
45793;BME280;31495;42.740;22.908;2023-05-23T02:39:00;92954.72;;;10.32;73.37
45793;BME280;31495;42.740;22.908;2023-05-23T02:39:59;92963.06;;;10.34;72.99
45793;BME280;31495;42.740;22.908;2023-05-23T02:40:59;92960.50;;;10.27;73.12
45793;BME280;31495;42.740;22.908;2023-05-23T02:41:58;92959.78;;;10.20;73.30
45793;BME280;31495;42.740;22.908;2023-05-23T02:42:58;92951.41;;;10.18;73.60
45793;BME280;31495;42.740;22.908;2023-05-23T02:43:57;92946.25;;;10.18;73.78
45793;BME280;31495;42.740;22.908;2023-05-23T02:44:57;92949.78;;;10.24;73.92
45793;BME280;31495;42.740;22.908;2023-05-23T02:45:57;92950.56;;;10.24;73.89
45793;BME280;31495;42.740;22.908;2023-05-23T02:46:56;92939.59;;;10.29;73.67
45793;BME280;31495;42.740;22.908;2023-05-23T02:47:55;92945.78;;;10.28;73.75
45793;BME280;31495;42.740;22.908;2023-05-23T02:48:55;92951.19;;;10.26;74.09
45793;BME280;31495;42.740;22.908;2023-05-23T02:49:54;92945.00;;;10.27;73.87
45793;BME280;31495;42.740;22.908;2023-05-23T02:50:53;92946.78;;;10.27;73.78
45793;BME280;31495;42.740;22.908;2023-05-23T02:51:53;92946.38;;;10.30;73.53
45793;BME280;31495;42.740;22.908;2023-05-23T02:52:52;92941.97;;;10.30;73.59
45793;BME280;31495;42.740;22.908;2023-05-23T02:53:51;92950.00;;;10.22;73.78
45793;BME280;31495;42.740;22.908;2023-05-23T02:54:51;92944.84;;;10.22;73.82
45793;BME280;31495;42.740;22.908;2023-05-23T02:55:50;92949.22;;;10.22;73.75
45793;BME280;31495;42.740;22.908;2023-05-23T02:56:50;92948.19;;;10.23;73.72
45793;BME280;31495;42.740;22.908;2023-05-23T02:57:50;92944.84;;;10.22;73.81
45793;BME280;31495;42.740;22.908;2023-05-23T02:58:50;92945.63;;;10.23;73.88
45793;BME280;31495;42.740;22.908;2023-05-23T02:59:50;92947.56;;;10.27;73.83
45793;BME280;31495;42.740;22.908;2023-05-23T03:00:49;92953.97;;;10.25;73.51
45793;BME280;31495;42.740;22.908;2023-05-23T03:01:49;92952.44;;;10.17;73.87
45793;BME280;31495;42.740;22.908;2023-05-23T03:02:48;92954.72;;;10.07;74.25
45793;BME280;31495;42.740;22.908;2023-05-23T03:03:48;92948.16;;;10.04;74.47
45793;BME280;31495;42.740;22.908;2023-05-23T03:04:47;92951.75;;;10.03;74.54
45793;BME280;31495;42.740;22.908;2023-05-23T03:05:47;92956.34;;;10.01;74.75
45793;BME280;31495;42.740;22.908;2023-05-23T03:06:47;92957.09;;;10.08;74.48
45793;BME280;31495;42.740;22.908;2023-05-23T03:07:46;92955.28;;;10.09;74.17
45793;BME280;31495;42.740;22.908;2023-05-23T03:08:45;92950.16;;;10.02;74.43
45793;BME280;31495;42.740;22.908;2023-05-23T03:09:45;92949.00;;;9.98;74.75
45793;BME280;31495;42.740;22.908;2023-05-23T03:10:44;92955.19;;;9.97;74.82
45793;BME280;31495;42.740;22.908;2023-05-23T03:11:43;92954.16;;;9.98;74.90
45793;BME280;31495;42.740;22.908;2023-05-23T03:12:43;92948.56;;;10.01;74.56
45793;BME280;31495;42.740;22.908;2023-05-23T03:13:42;92952.97;;;10.01;74.42
45793;BME280;31495;42.740;22.908;2023-05-23T03:14:41;92958.72;;;10.03;74.06
45793;BME280;31495;42.740;22.908;2023-05-23T03:15:41;92957.72;;;10.04;73.69
45793;BME280;31495;42.740;22.908;2023-05-23T03:16:40;92952.53;;;10.04;73.44
45793;BME280;31495;42.740;22.908;2023-05-23T03:17:39;92958.88;;;10.08;72.96
45793;BME280;31495;42.740;22.908;2023-05-23T03:18:39;92952.50;;;10.10;72.96
45793;BME280;31495;42.740;22.908;2023-05-23T03:19:39;92956.44;;;10.13;72.43
45793;BME280;31495;42.740;22.908;2023-05-23T03:20:39;92958.59;;;10.16;72.12
45793;BME280;31495;42.740;22.908;2023-05-23T03:21:38;92953.13;;;10.06;72.52
45793;BME280;31495;42.740;22.908;2023-05-23T03:22:37;92963.47;;;10.06;72.72
45793;BME280;31495;42.740;22.908;2023-05-23T03:23:37;92956.75;;;9.98;72.52
45793;BME280;31495;42.740;22.908;2023-05-23T03:24:36;92956.75;;;9.98;72.42
45793;BME280;31495;42.740;22.908;2023-05-23T03:25:35;92961.97;;;9.91;72.68
45793;BME280;31495;42.740;22.908;2023-05-23T03:26:35;92961.59;;;9.88;72.84
45793;BME280;31495;42.740;22.908;2023-05-23T03:27:34;92964.13;;;9.94;73.03
45793;BME280;31495;42.740;22.908;2023-05-23T03:28:33;92964.38;;;9.86;73.02
45793;BME280;31495;42.740;22.908;2023-05-23T03:29:33;92963.59;;;9.86;73.13
45793;BME280;31495;42.740;22.908;2023-05-23T03:30:32;92962.59;;;9.87;73.13
45793;BME280;31495;42.740;22.908;2023-05-23T03:31:31;92961.59;;;9.88;73.09
45793;BME280;31495;42.740;22.908;2023-05-23T03:32:31;92964.75;;;9.90;73.18
45793;BME280;31495;42.740;22.908;2023-05-23T03:33:30;92962.94;;;9.97;73.06
45793;BME280;31495;42.740;22.908;2023-05-23T03:34:29;92967.69;;;10.00;73.02
45793;BME280;31495;42.740;22.908;2023-05-23T03:35:31;92965.72;;;9.96;73.22
45793;BME280;31495;42.740;22.908;2023-05-23T03:36:30;92966.16;;;9.92;73.25
45793;BME280;31495;42.740;22.908;2023-05-23T03:37:33;92972.09;;;9.93;73.04
45793;BME280;31495;42.740;22.908;2023-05-23T03:38:33;92971.69;;;9.96;73.18
45793;BME280;31495;42.740;22.908;2023-05-23T03:39:32;92976.63;;;9.98;73.22
45793;BME280;31495;42.740;22.908;2023-05-23T03:40:31;92976.03;;;10.02;73.31
45793;BME280;31495;42.740;22.908;2023-05-23T03:41:31;92976.97;;;10.08;73.08
45793;BME280;31495;42.740;22.908;2023-05-23T03:42:30;92976.38;;;10.06;73.33
45793;BME280;31495;42.740;22.908;2023-05-23T03:43:29;92969.84;;;10.03;73.48
45793;BME280;31495;42.740;22.908;2023-05-23T03:44:29;92978.44;;;9.97;73.73
45793;BME280;31495;42.740;22.908;2023-05-23T03:45:29;92979.22;;;9.98;73.89
45793;BME280;31495;42.740;22.908;2023-05-23T03:46:28;92980.16;;;10.03;73.89
45793;BME280;31495;42.740;22.908;2023-05-23T03:47:27;92977.59;;;10.03;74.09
45793;BME280;31495;42.740;22.908;2023-05-23T03:48:26;92975.41;;;10.07;74.23
45793;BME280;31495;42.740;22.908;2023-05-23T03:49:26;92971.00;;;10.07;74.12
45793;BME280;31495;42.740;22.908;2023-05-23T03:50:25;92970.44;;;10.05;74.29
45793;BME280;31495;42.740;22.908;2023-05-23T03:51:24;92978.41;;;10.04;74.66
45793;BME280;31495;42.740;22.908;2023-05-23T03:52:24;92971.84;;;10.01;74.96
45793;BME280;31495;42.740;22.908;2023-05-23T03:53:23;92976.38;;;10.06;75.14
45793;BME280;31495;42.740;22.908;2023-05-23T03:54:23;92971.84;;;10.01;75.25
45793;BME280;31495;42.740;22.908;2023-05-23T03:55:23;92977.00;;;10.01;75.42
45793;BME280;31495;42.740;22.908;2023-05-23T03:56:23;92974.22;;;10.03;75.66
45793;BME280;31495;42.740;22.908;2023-05-23T03:57:22;92973.63;;;10.01;75.69
45793;BME280;31495;42.740;22.908;2023-05-23T03:58:21;92970.63;;;10.04;75.54
45793;BME280;31495;42.740;22.908;2023-05-23T03:59:21;92978.75;;;10.07;75.51
45793;BME280;31495;42.740;22.908;2023-05-23T04:00:20;92970.59;;;10.10;75.37
45793;BME280;31495;42.740;22.908;2023-05-23T04:01:20;92962.03;;;10.10;75.42
45793;BME280;31495;42.740;22.908;2023-05-23T04:02:19;92962.41;;;10.14;75.43
45793;BME280;31495;42.740;22.908;2023-05-23T04:03:18;92970.75;;;10.16;75.25
45793;BME280;31495;42.740;22.908;2023-05-23T04:04:18;92968.16;;;10.16;75.04
45793;BME280;31495;42.740;22.908;2023-05-23T04:05:19;92962.56;;;10.19;75.03
45793;BME280;31495;42.740;22.908;2023-05-23T04:06:18;92970.91;;;10.21;75.13
45793;BME280;31495;42.740;22.908;2023-05-23T04:07:18;92966.47;;;10.28;75.25
45793;BME280;31495;42.740;22.908;2023-05-23T04:08:17;92970.63;;;10.29;75.27
45793;BME280;31495;42.740;22.908;2023-05-23T04:09:20;92968.84;;;10.29;75.30
45793;BME280;31495;42.740;22.908;2023-05-23T04:10:19;92973.00;;;10.30;75.20
45793;BME280;31495;42.740;22.908;2023-05-23T04:11:18;92969.81;;;10.35;75.28
45793;BME280;31495;42.740;22.908;2023-05-23T04:12:17;92966.22;;;10.36;75.27
45793;BME280;31495;42.740;22.908;2023-05-23T04:13:17;92969.97;;;10.40;75.17
45793;BME280;31495;42.740;22.908;2023-05-23T04:14:16;92961.59;;;10.45;74.95
45793;BME280;31495;42.740;22.908;2023-05-23T04:15:18;92962.78;;;10.42;75.19
45793;BME280;31495;42.740;22.908;2023-05-23T04:16:19;92970.34;;;10.44;75.50
45793;BME280;31495;42.740;22.908;2023-05-23T04:17:20;92964.75;;;10.47;75.33
45793;BME280;31495;42.740;22.908;2023-05-23T04:18:20;92966.56;;;10.46;74.97
45793;BME280;31495;42.740;22.908;2023-05-23T04:19:20;92966.84;;;10.57;75.02
45793;BME280;31495;42.740;22.908;2023-05-23T04:20:19;92969.22;;;10.58;75.12
45793;BME280;31495;42.740;22.908;2023-05-23T04:21:18;92967.63;;;10.57;75.46
45793;BME280;31495;42.740;22.908;2023-05-23T04:22:18;92966.78;;;10.63;75.46
45793;BME280;31495;42.740;22.908;2023-05-23T04:23:17;92965.78;;;10.64;75.17
45793;BME280;31495;42.740;22.908;2023-05-23T04:24:16;92975.13;;;10.65;75.10
45793;BME280;31495;42.740;22.908;2023-05-23T04:25:16;92971.09;;;10.70;75.25
45793;BME280;31495;42.740;22.908;2023-05-23T04:26:16;92973.47;;;10.71;75.17
45793;BME280;31495;42.740;22.908;2023-05-23T04:27:16;92975.66;;;10.74;75.42
45793;BME280;31495;42.740;22.908;2023-05-23T04:28:15;92974.78;;;10.80;75.37
45793;BME280;31495;42.740;22.908;2023-05-23T04:29:15;92969.59;;;10.80;75.35
45793;BME280;31495;42.740;22.908;2023-05-23T04:30:14;92974.72;;;10.87;75.25
45793;BME280;31495;42.740;22.908;2023-05-23T04:31:15;92975.28;;;10.89;74.85
45793;BME280;31495;42.740;22.908;2023-05-23T04:32:14;92983.06;;;10.89;74.62
45793;BME280;31495;42.740;22.908;2023-05-23T04:33:14;92974.66;;;10.94;74.46
45793;BME280;31495;42.740;22.908;2023-05-23T04:34:15;92980.63;;;10.94;74.55
45793;BME280;31495;42.740;22.908;2023-05-23T04:35:15;92982.41;;;10.94;74.74
45793;BME280;31495;42.740;22.908;2023-05-23T04:36:14;92983.78;;;10.96;74.82
45793;BME280;31495;42.740;22.908;2023-05-23T04:37:14;92975.00;;;10.97;74.89
45793;BME280;31495;42.740;22.908;2023-05-23T04:38:13;92978.75;;;11.01;74.96
45793;BME280;31495;42.740;22.908;2023-05-23T04:39:13;92978.53;;;11.03;74.93
45793;BME280;31495;42.740;22.908;2023-05-23T04:40:12;92977.88;;;11.08;74.94
45793;BME280;31495;42.740;22.908;2023-05-23T04:41:12;92974.66;;;11.12;75.19
45793;BME280;31495;42.740;22.908;2023-05-23T04:42:14;92976.38;;;11.18;75.61
45793;BME280;31495;42.740;22.908;2023-05-23T04:43:13;92967.94;;;11.23;75.85
45793;BME280;31495;42.740;22.908;2023-05-23T04:44:14;92970.31;;;11.25;75.56
45793;BME280;31495;42.740;22.908;2023-05-23T04:45:14;92966.94;;;11.24;75.68
45793;BME280;31495;42.740;22.908;2023-05-23T04:46:13;92973.28;;;11.28;75.98
45793;BME280;31495;42.740;22.908;2023-05-23T04:47:12;92972.38;;;11.34;76.18
45793;BME280;31495;42.740;22.908;2023-05-23T04:48:12;92970.75;;;11.40;76.04
45793;BME280;31495;42.740;22.908;2023-05-23T04:49:15;92971.72;;;11.39;76.00
45793;BME280;31495;42.740;22.908;2023-05-23T04:50:14;92969.94;;;11.39;76.11
45793;BME280;31495;42.740;22.908;2023-05-23T04:51:14;92973.69;;;11.44;75.98
45793;BME280;31495;42.740;22.908;2023-05-23T04:52:13;92970.66;;;11.47;75.97
45793;BME280;31495;42.740;22.908;2023-05-23T04:53:13;92970.22;;;11.50;76.04
45793;BME280;31495;42.740;22.908;2023-05-23T04:54:12;92970.00;;;11.51;75.92
45793;BME280;31495;42.740;22.908;2023-05-23T04:55:11;92970.91;;;11.57;76.13
45793;BME280;31495;42.740;22.908;2023-05-23T04:56:11;92965.06;;;11.62;76.53
45793;BME280;31495;42.740;22.908;2023-05-23T04:57:10;92965.84;;;11.62;76.68
45793;BME280;31495;42.740;22.908;2023-05-23T04:58:10;92968.00;;;11.65;76.62
45793;BME280;31495;42.740;22.908;2023-05-23T04:59:10;92968.94;;;11.71;76.72
45793;BME280;31495;42.740;22.908;2023-05-23T05:00:11;92973.44;;;11.75;76.91
45793;BME280;31495;42.740;22.908;2023-05-23T05:01:10;92971.22;;;11.79;76.97
45793;BME280;31495;42.740;22.908;2023-05-23T05:02:10;92969.75;;;11.83;77.08
45793;BME280;31495;42.740;22.908;2023-05-23T05:03:09;92971.56;;;11.83;77.25
45793;BME280;31495;42.740;22.908;2023-05-23T05:04:10;92961.78;;;11.85;77.19
45793;BME280;31495;42.740;22.908;2023-05-23T05:05:09;92970.91;;;11.87;77.05
45793;BME280;31495;42.740;22.908;2023-05-23T05:06:09;92965.28;;;11.90;77.07
45793;BME280;31495;42.740;22.908;2023-05-23T05:07:08;92951.88;;;11.93;76.82
45793;BME280;31495;42.740;22.908;2023-05-23T05:08:07;92956.41;;;11.98;76.64
45793;BME280;31495;42.740;22.908;2023-05-23T05:09:07;92964.31;;;12.03;76.38
45793;BME280;31495;42.740;22.908;2023-05-23T05:10:06;92955.53;;;12.04;76.17
45793;BME280;31495;42.740;22.908;2023-05-23T05:11:07;92962.66;;;12.09;76.33
45793;BME280;31495;42.740;22.908;2023-05-23T05:12:07;92956.22;;;12.11;76.77
45793;BME280;31495;42.740;22.908;2023-05-23T05:13:06;92964.69;;;12.19;77.30
45793;BME280;31495;42.740;22.908;2023-05-23T05:14:05;92953.06;;;12.21;77.08
45793;BME280;31495;42.740;22.908;2023-05-23T05:15:05;92957.03;;;12.24;76.84
45793;BME280;31495;42.740;22.908;2023-05-23T05:16:05;92953.19;;;12.26;76.37
45793;BME280;31495;42.740;22.908;2023-05-23T05:17:04;92947.91;;;12.33;76.30